sensor_id;sensor_type;location;lat;lon;timestamp;P1;durP1;ratioP1;P2;durP2;ratioP2
13477;SDS011;12598;62.382;17.344;2023-01-10T00:01:04;1.73;;;1.25;;
13477;SDS011;12598;62.382;17.344;2023-01-10T00:02:06;1.60;;;1.38;;
13477;SDS011;12598;62.382;17.344;2023-01-10T00:03:09;1.55;;;1.45;;
13477;SDS011;12598;62.382;17.344;2023-01-10T00:04:12;1.75;;;1.52;;
13477;SDS011;12598;62.382;17.344;2023-01-10T00:05:14;1.75;;;1.63;;
13477;SDS011;12598;62.382;17.344;2023-01-10T00:06:16;1.67;;;1.55;;
13477;SDS011;12598;62.382;17.344;2023-01-10T00:07:18;1.60;;;1.30;;
13477;SDS011;12598;62.382;17.344;2023-01-10T00:08:20;2.30;;;2.00;;
13477;SDS011;12598;62.382;17.344;2023-01-10T00:09:22;2.42;;;1.42;;
13477;SDS011;12598;62.382;17.344;2023-01-10T00:10:24;1.80;;;1.70;;
13477;SDS011;12598;62.382;17.344;2023-01-10T00:11:26;1.90;;;1.70;;
13477;SDS011;12598;62.382;17.344;2023-01-10T00:12:46;1.85;;;1.58;;
13477;SDS011;12598;62.382;17.344;2023-01-10T00:14:07;1.60;;;1.48;;
13477;SDS011;12598;62.382;17.344;2023-01-10T00:15:09;1.73;;;1.52;;
13477;SDS011;12598;62.382;17.344;2023-01-10T00:16:11;1.90;;;1.70;;
13477;SDS011;12598;62.382;17.344;2023-01-10T00:17:13;2.55;;;1.90;;
13477;SDS011;12598;62.382;17.344;2023-01-10T00:18:15;2.17;;;1.73;;
13477;SDS011;12598;62.382;17.344;2023-01-10T00:19:17;2.08;;;1.90;;
13477;SDS011;12598;62.382;17.344;2023-01-10T00:20:18;2.05;;;1.90;;
13477;SDS011;12598;62.382;17.344;2023-01-10T00:21:20;1.70;;;1.60;;
13477;SDS011;12598;62.382;17.344;2023-01-10T00:22:22;2.17;;;1.95;;
13477;SDS011;12598;62.382;17.344;2023-01-10T00:23:26;2.60;;;2.25;;
13477;SDS011;12598;62.382;17.344;2023-01-10T00:24:28;2.25;;;2.05;;
13477;SDS011;12598;62.382;17.344;2023-01-10T00:25:30;2.05;;;1.88;;
13477;SDS011;12598;62.382;17.344;2023-01-10T00:26:34;2.83;;;2.63;;
13477;SDS011;12598;62.382;17.344;2023-01-10T00:27:36;2.95;;;2.53;;
13477;SDS011;12598;62.382;17.344;2023-01-10T00:28:38;2.45;;;2.25;;
13477;SDS011;12598;62.382;17.344;2023-01-10T00:29:40;2.92;;;2.35;;
13477;SDS011;12598;62.382;17.344;2023-01-10T00:30:42;2.72;;;2.40;;
13477;SDS011;12598;62.382;17.344;2023-01-10T00:31:44;2.40;;;2.15;;
13477;SDS011;12598;62.382;17.344;2023-01-10T00:32:45;2.65;;;2.45;;
13477;SDS011;12598;62.382;17.344;2023-01-10T00:33:47;3.03;;;2.35;;
13477;SDS011;12598;62.382;17.344;2023-01-10T00:34:49;2.53;;;2.30;;
13477;SDS011;12598;62.382;17.344;2023-01-10T00:35:51;2.63;;;2.42;;
13477;SDS011;12598;62.382;17.344;2023-01-10T00:36:53;2.85;;;2.60;;
13477;SDS011;12598;62.382;17.344;2023-01-10T00:37:55;2.97;;;2.78;;
13477;SDS011;12598;62.382;17.344;2023-01-10T00:39:01;2.92;;;2.33;;
13477;SDS011;12598;62.382;17.344;2023-01-10T00:40:05;3.10;;;2.67;;
13477;SDS011;12598;62.382;17.344;2023-01-10T00:41:11;3.00;;;2.70;;
13477;SDS011;12598;62.382;17.344;2023-01-10T00:42:31;3.33;;;2.80;;
13477;SDS011;12598;62.382;17.344;2023-01-10T00:43:52;2.70;;;2.50;;
13477;SDS011;12598;62.382;17.344;2023-01-10T00:45:00;3.22;;;2.92;;
13477;SDS011;12598;62.382;17.344;2023-01-10T00:46:01;2.88;;;2.53;;
13477;SDS011;12598;62.382;17.344;2023-01-10T00:47:03;4.10;;;3.17;;
13477;SDS011;12598;62.382;17.344;2023-01-10T00:48:05;3.47;;;2.92;;
13477;SDS011;12598;62.382;17.344;2023-01-10T00:49:07;3.10;;;2.80;;
13477;SDS011;12598;62.382;17.344;2023-01-10T00:50:09;3.05;;;2.75;;
13477;SDS011;12598;62.382;17.344;2023-01-10T00:51:12;3.20;;;2.90;;
13477;SDS011;12598;62.382;17.344;2023-01-10T00:52:14;3.15;;;2.80;;
13477;SDS011;12598;62.382;17.344;2023-01-10T00:53:15;3.25;;;2.95;;
13477;SDS011;12598;62.382;17.344;2023-01-10T00:54:17;3.15;;;2.85;;
13477;SDS011;12598;62.382;17.344;2023-01-10T00:55:19;2.65;;;2.45;;
13477;SDS011;12598;62.382;17.344;2023-01-10T00:56:21;3.53;;;2.70;;
13477;SDS011;12598;62.382;17.344;2023-01-10T00:57:23;3.03;;;2.72;;
13477;SDS011;12598;62.382;17.344;2023-01-10T00:58:25;3.20;;;2.90;;
13477;SDS011;12598;62.382;17.344;2023-01-10T00:59:26;3.08;;;2.72;;
13477;SDS011;12598;62.382;17.344;2023-01-10T01:00:29;3.20;;;2.90;;
13477;SDS011;12598;62.382;17.344;2023-01-10T01:01:32;3.33;;;2.90;;
13477;SDS011;12598;62.382;17.344;2023-01-10T01:02:34;2.90;;;2.70;;
13477;SDS011;12598;62.382;17.344;2023-01-10T01:03:36;3.10;;;2.80;;
13477;SDS011;12598;62.382;17.344;2023-01-10T01:04:38;2.70;;;2.50;;
13477;SDS011;12598;62.382;17.344;2023-01-10T01:05:41;2.88;;;2.65;;
13477;SDS011;12598;62.382;17.344;2023-01-10T01:06:44;3.40;;;3.10;;
13477;SDS011;12598;62.382;17.344;2023-01-10T01:07:48;3.10;;;2.40;;
13477;SDS011;12598;62.382;17.344;2023-01-10T01:08:52;2.78;;;2.58;;
13477;SDS011;12598;62.382;17.344;2023-01-10T01:09:54;3.30;;;3.00;;
13477;SDS011;12598;62.382;17.344;2023-01-10T01:11:15;3.05;;;2.67;;
13477;SDS011;12598;62.382;17.344;2023-01-10T01:12:16;3.13;;;2.83;;
13477;SDS011;12598;62.382;17.344;2023-01-10T01:13:19;2.80;;;2.60;;
13477;SDS011;12598;62.382;17.344;2023-01-10T01:14:22;3.17;;;2.88;;
13477;SDS011;12598;62.382;17.344;2023-01-10T01:15:25;3.35;;;2.88;;
13477;SDS011;12598;62.382;17.344;2023-01-10T01:16:28;3.58;;;2.95;;
13477;SDS011;12598;62.382;17.344;2023-01-10T01:17:29;3.10;;;2.80;;
13477;SDS011;12598;62.382;17.344;2023-01-10T01:18:31;2.83;;;2.63;;
13477;SDS011;12598;62.382;17.344;2023-01-10T01:19:34;3.03;;;2.75;;
13477;SDS011;12598;62.382;17.344;2023-01-10T01:20:37;3.13;;;2.80;;
13477;SDS011;12598;62.382;17.344;2023-01-10T01:21:40;3.08;;;2.78;;
13477;SDS011;12598;62.382;17.344;2023-01-10T01:22:42;3.55;;;3.00;;
13477;SDS011;12598;62.382;17.344;2023-01-10T01:23:44;3.28;;;2.97;;
13477;SDS011;12598;62.382;17.344;2023-01-10T01:24:45;3.25;;;2.95;;
13477;SDS011;12598;62.382;17.344;2023-01-10T01:25:50;3.10;;;2.80;;
13477;SDS011;12598;62.382;17.344;2023-01-10T01:26:53;3.63;;;3.33;;
13477;SDS011;12598;62.382;17.344;2023-01-10T01:27:55;3.45;;;3.15;;
13477;SDS011;12598;62.382;17.344;2023-01-10T01:28:57;3.45;;;3.03;;
13477;SDS011;12598;62.382;17.344;2023-01-10T01:29:59;3.70;;;3.25;;
13477;SDS011;12598;62.382;17.344;2023-01-10T01:31:08;3.08;;;2.78;;
13477;SDS011;12598;62.382;17.344;2023-01-10T01:32:11;4.13;;;2.95;;
13477;SDS011;12598;62.382;17.344;2023-01-10T01:33:13;3.08;;;2.78;;
13477;SDS011;12598;62.382;17.344;2023-01-10T01:34:15;3.25;;;2.95;;
13477;SDS011;12598;62.382;17.344;2023-01-10T01:35:17;3.47;;;3.10;;
13477;SDS011;12598;62.382;17.344;2023-01-10T01:36:19;3.17;;;2.88;;
13477;SDS011;12598;62.382;17.344;2023-01-10T01:37:21;3.35;;;2.83;;
13477;SDS011;12598;62.382;17.344;2023-01-10T01:38:23;3.13;;;2.83;;
13477;SDS011;12598;62.382;17.344;2023-01-10T01:39:24;3.00;;;2.70;;
13477;SDS011;12598;62.382;17.344;2023-01-10T01:40:26;3.35;;;2.83;;
13477;SDS011;12598;62.382;17.344;2023-01-10T01:41:28;3.03;;;2.72;;
13477;SDS011;12598;62.382;17.344;2023-01-10T01:42:49;2.95;;;2.63;;
13477;SDS011;12598;62.382;17.344;2023-01-10T01:44:05;2.90;;;2.60;;
13477;SDS011;12598;62.382;17.344;2023-01-10T01:45:24;2.95;;;2.75;;
13477;SDS011;12598;62.382;17.344;2023-01-10T01:46:33;3.38;;;3.08;;
13477;SDS011;12598;62.382;17.344;2023-01-10T01:48:47;2.70;;;2.50;;
13477;SDS011;12598;62.382;17.344;2023-01-10T01:49:49;2.85;;;2.58;;
13477;SDS011;12598;62.382;17.344;2023-01-10T01:51:58;2.20;;;2.00;;
13477;SDS011;12598;62.382;17.344;2023-01-10T01:53:12;3.78;;;2.42;;
13477;SDS011;12598;62.382;17.344;2023-01-10T01:54:18;2.78;;;2.55;;
13477;SDS011;12598;62.382;17.344;2023-01-10T01:55:21;2.72;;;2.53;;
13477;SDS011;12598;62.382;17.344;2023-01-10T01:56:28;2.60;;;2.40;;
13477;SDS011;12598;62.382;17.344;2023-01-10T01:57:33;2.85;;;2.28;;
13477;SDS011;12598;62.382;17.344;2023-01-10T01:58:38;2.72;;;2.53;;
13477;SDS011;12598;62.382;17.344;2023-01-10T02:00:10;3.60;;;2.60;;
13477;SDS011;12598;62.382;17.344;2023-01-10T02:01:13;2.45;;;2.25;;
13477;SDS011;12598;62.382;17.344;2023-01-10T02:02:18;2.95;;;2.75;;
13477;SDS011;12598;62.382;17.344;2023-01-10T02:03:24;2.65;;;2.45;;
13477;SDS011;12598;62.382;17.344;2023-01-10T02:04:28;2.42;;;2.22;;
13477;SDS011;12598;62.382;17.344;2023-01-10T02:05:39;2.42;;;2.22;;
13477;SDS011;12598;62.382;17.344;2023-01-10T02:06:43;2.42;;;2.22;;
13477;SDS011;12598;62.382;17.344;2023-01-10T02:07:48;2.22;;;2.10;;
13477;SDS011;12598;62.382;17.344;2023-01-10T02:09:02;2.47;;;2.28;;
13477;SDS011;12598;62.382;17.344;2023-01-10T02:11:57;2.22;;;2.03;;
13477;SDS011;12598;62.382;17.344;2023-01-10T02:13:04;2.40;;;2.20;;
13477;SDS011;12598;62.382;17.344;2023-01-10T02:14:08;2.80;;;2.60;;
13477;SDS011;12598;62.382;17.344;2023-01-10T02:15:12;2.45;;;2.25;;
13477;SDS011;12598;62.382;17.344;2023-01-10T02:16:16;2.47;;;2.28;;
13477;SDS011;12598;62.382;17.344;2023-01-10T02:17:18;2.30;;;2.10;;
13477;SDS011;12598;62.382;17.344;2023-01-10T02:18:21;2.58;;;2.38;;
13477;SDS011;12598;62.382;17.344;2023-01-10T02:21:57;2.33;;;2.13;;
13477;SDS011;12598;62.382;17.344;2023-01-10T02:33:50;2.85;;;2.65;;
13477;SDS011;12598;62.382;17.344;2023-01-10T02:40:54;3.20;;;2.90;;
13477;SDS011;12598;62.382;17.344;2023-01-10T02:44:51;3.13;;;2.83;;
13477;SDS011;12598;62.382;17.344;2023-01-10T02:46:08;2.70;;;2.50;;
13477;SDS011;12598;62.382;17.344;2023-01-10T02:47:15;2.75;;;2.55;;
13477;SDS011;12598;62.382;17.344;2023-01-10T02:48:17;3.00;;;2.70;;
13477;SDS011;12598;62.382;17.344;2023-01-10T02:49:19;2.97;;;2.63;;
13477;SDS011;12598;62.382;17.344;2023-01-10T02:50:35;2.53;;;2.33;;
13477;SDS011;12598;62.382;17.344;2023-01-10T02:51:44;2.50;;;2.30;;
13477;SDS011;12598;62.382;17.344;2023-01-10T02:52:45;3.28;;;2.97;;
13477;SDS011;12598;62.382;17.344;2023-01-10T02:53:49;2.88;;;2.67;;
13477;SDS011;12598;62.382;17.344;2023-01-10T02:54:57;2.95;;;2.72;;
13477;SDS011;12598;62.382;17.344;2023-01-10T02:56:06;2.72;;;2.50;;
13477;SDS011;12598;62.382;17.344;2023-01-10T02:57:42;2.70;;;2.50;;
13477;SDS011;12598;62.382;17.344;2023-01-10T03:03:05;2.40;;;2.20;;
13477;SDS011;12598;62.382;17.344;2023-01-10T03:04:12;2.80;;;2.60;;
13477;SDS011;12598;62.382;17.344;2023-01-10T03:06:46;2.70;;;2.47;;
13477;SDS011;12598;62.382;17.344;2023-01-10T03:09:15;3.00;;;2.78;;
13477;SDS011;12598;62.382;17.344;2023-01-10T03:10:31;3.22;;;2.92;;
13477;SDS011;12598;62.382;17.344;2023-01-10T03:12:03;3.35;;;2.78;;
13477;SDS011;12598;62.382;17.344;2023-01-10T03:13:15;3.13;;;2.50;;
13477;SDS011;12598;62.382;17.344;2023-01-10T03:14:27;3.10;;;2.80;;
13477;SDS011;12598;62.382;17.344;2023-01-10T03:15:31;3.13;;;2.83;;
13477;SDS011;12598;62.382;17.344;2023-01-10T03:16:37;2.83;;;2.58;;
13477;SDS011;12598;62.382;17.344;2023-01-10T03:17:42;2.75;;;2.55;;
13477;SDS011;12598;62.382;17.344;2023-01-10T03:18:53;2.55;;;2.35;;
13477;SDS011;12598;62.382;17.344;2023-01-10T03:20:00;3.20;;;2.90;;
13477;SDS011;12598;62.382;17.344;2023-01-10T03:21:05;2.80;;;2.60;;
13477;SDS011;12598;62.382;17.344;2023-01-10T03:22:09;3.05;;;2.60;;
13477;SDS011;12598;62.382;17.344;2023-01-10T03:23:12;2.33;;;2.13;;
13477;SDS011;12598;62.382;17.344;2023-01-10T03:24:18;2.90;;;2.60;;
13477;SDS011;12598;62.382;17.344;2023-01-10T03:25:27;2.33;;;2.13;;
13477;SDS011;12598;62.382;17.344;2023-01-10T03:28:00;2.70;;;2.33;;
13477;SDS011;12598;62.382;17.344;2023-01-10T03:29:17;2.55;;;2.35;;
13477;SDS011;12598;62.382;17.344;2023-01-10T03:30:38;2.55;;;2.35;;
13477;SDS011;12598;62.382;17.344;2023-01-10T03:31:52;2.40;;;2.20;;
13477;SDS011;12598;62.382;17.344;2023-01-10T03:32:57;3.10;;;2.42;;
13477;SDS011;12598;62.382;17.344;2023-01-10T03:34:00;2.22;;;2.03;;
13477;SDS011;12598;62.382;17.344;2023-01-10T03:35:03;2.20;;;2.00;;
13477;SDS011;12598;62.382;17.344;2023-01-10T03:36:41;2.42;;;2.20;;
13477;SDS011;12598;62.382;17.344;2023-01-10T03:37:43;2.22;;;2.00;;
13477;SDS011;12598;62.382;17.344;2023-01-10T03:40:16;2.22;;;1.98;;
13477;SDS011;12598;62.382;17.344;2023-01-10T03:45:29;2.50;;;2.30;;
13477;SDS011;12598;62.382;17.344;2023-01-10T03:48:31;2.78;;;2.42;;
13477;SDS011;12598;62.382;17.344;2023-01-10T03:49:38;3.13;;;2.45;;
13477;SDS011;12598;62.382;17.344;2023-01-10T03:50:42;2.30;;;2.10;;
13477;SDS011;12598;62.382;17.344;2023-01-10T03:51:46;2.20;;;2.00;;
13477;SDS011;12598;62.382;17.344;2023-01-10T03:52:49;2.50;;;2.13;;
13477;SDS011;12598;62.382;17.344;2023-01-10T03:53:50;2.40;;;2.00;;
13477;SDS011;12598;62.382;17.344;2023-01-10T03:54:52;2.65;;;2.25;;
13477;SDS011;12598;62.382;17.344;2023-01-10T03:55:54;2.40;;;2.20;;
13477;SDS011;12598;62.382;17.344;2023-01-10T03:56:56;2.45;;;2.25;;
13477;SDS011;12598;62.382;17.344;2023-01-10T03:57:58;2.25;;;2.05;;
13477;SDS011;12598;62.382;17.344;2023-01-10T03:59:00;2.58;;;2.08;;
13477;SDS011;12598;62.382;17.344;2023-01-10T04:00:02;2.42;;;1.90;;
13477;SDS011;12598;62.382;17.344;2023-01-10T04:01:05;2.25;;;2.05;;
13477;SDS011;12598;62.382;17.344;2023-01-10T04:02:07;2.67;;;2.30;;
13477;SDS011;12598;62.382;17.344;2023-01-10T04:03:09;2.40;;;2.08;;
13477;SDS011;12598;62.382;17.344;2023-01-10T04:04:11;2.10;;;1.90;;
13477;SDS011;12598;62.382;17.344;2023-01-10T04:05:13;2.47;;;2.10;;
13477;SDS011;12598;62.382;17.344;2023-01-10T04:06:15;2.65;;;1.95;;
13477;SDS011;12598;62.382;17.344;2023-01-10T04:07:18;2.00;;;1.83;;
13477;SDS011;12598;62.382;17.344;2023-01-10T04:08:19;2.60;;;2.08;;
13477;SDS011;12598;62.382;17.344;2023-01-10T04:09:21;2.47;;;2.28;;
13477;SDS011;12598;62.382;17.344;2023-01-10T04:10:23;1.95;;;1.77;;
13477;SDS011;12598;62.382;17.344;2023-01-10T04:11:27;2.13;;;1.92;;
13477;SDS011;12598;62.382;17.344;2023-01-10T04:12:29;2.17;;;2.00;;
13477;SDS011;12598;62.382;17.344;2023-01-10T04:13:31;1.88;;;1.73;;
13477;SDS011;12598;62.382;17.344;2023-01-10T04:14:33;1.92;;;1.83;;
13477;SDS011;12598;62.382;17.344;2023-01-10T04:15:35;1.92;;;1.60;;
13477;SDS011;12598;62.382;17.344;2023-01-10T04:16:37;2.15;;;1.90;;
13477;SDS011;12598;62.382;17.344;2023-01-10T04:17:38;2.03;;;1.83;;
13477;SDS011;12598;62.382;17.344;2023-01-10T04:18:40;2.00;;;1.90;;
13477;SDS011;12598;62.382;17.344;2023-01-10T04:19:42;1.77;;;1.65;;
13477;SDS011;12598;62.382;17.344;2023-01-10T04:20:44;1.60;;;1.48;;
13477;SDS011;12598;62.382;17.344;2023-01-10T04:21:46;1.65;;;1.55;;
13477;SDS011;12598;62.382;17.344;2023-01-10T04:22:48;2.08;;;1.88;;
13477;SDS011;12598;62.382;17.344;2023-01-10T04:23:51;2.28;;;2.00;;
13477;SDS011;12598;62.382;17.344;2023-01-10T04:24:53;1.83;;;1.73;;
13477;SDS011;12598;62.382;17.344;2023-01-10T04:25:55;2.15;;;1.95;;
13477;SDS011;12598;62.382;17.344;2023-01-10T04:26:57;2.00;;;1.60;;
13477;SDS011;12598;62.382;17.344;2023-01-10T04:27:59;1.75;;;1.65;;
13477;SDS011;12598;62.382;17.344;2023-01-10T04:29:00;1.80;;;1.65;;
13477;SDS011;12598;62.382;17.344;2023-01-10T04:30:02;2.15;;;1.95;;
13477;SDS011;12598;62.382;17.344;2023-01-10T04:31:05;2.13;;;1.92;;
13477;SDS011;12598;62.382;17.344;2023-01-10T04:32:06;2.95;;;1.95;;
13477;SDS011;12598;62.382;17.344;2023-01-10T04:33:08;1.65;;;1.55;;
13477;SDS011;12598;62.382;17.344;2023-01-10T04:34:12;1.80;;;1.70;;
13477;SDS011;12598;62.382;17.344;2023-01-10T04:35:14;1.80;;;1.70;;
13477;SDS011;12598;62.382;17.344;2023-01-10T04:36:15;1.92;;;1.63;;
13477;SDS011;12598;62.382;17.344;2023-01-10T04:37:17;2.10;;;1.90;;
13477;SDS011;12598;62.382;17.344;2023-01-10T04:38:20;3.22;;;1.92;;
13477;SDS011;12598;62.382;17.344;2023-01-10T04:39:22;2.13;;;1.92;;
13477;SDS011;12598;62.382;17.344;2023-01-10T04:40:23;3.10;;;2.00;;
13477;SDS011;12598;62.382;17.344;2023-01-10T04:41:25;2.22;;;1.95;;
13477;SDS011;12598;62.382;17.344;2023-01-10T04:42:27;2.92;;;2.17;;
13477;SDS011;12598;62.382;17.344;2023-01-10T04:43:29;2.20;;;2.00;;
13477;SDS011;12598;62.382;17.344;2023-01-10T04:44:31;2.10;;;1.90;;
13477;SDS011;12598;62.382;17.344;2023-01-10T04:45:32;1.90;;;1.70;;
13477;SDS011;12598;62.382;17.344;2023-01-10T04:46:34;2.10;;;1.90;;
13477;SDS011;12598;62.382;17.344;2023-01-10T04:47:36;1.60;;;1.50;;
13477;SDS011;12598;62.382;17.344;2023-01-10T04:48:38;2.10;;;1.90;;
13477;SDS011;12598;62.382;17.344;2023-01-10T04:49:40;2.08;;;1.88;;
13477;SDS011;12598;62.382;17.344;2023-01-10T04:50:42;2.08;;;1.88;;
13477;SDS011;12598;62.382;17.344;2023-01-10T04:51:49;2.15;;;1.73;;
13477;SDS011;12598;62.382;17.344;2023-01-10T04:52:51;2.20;;;1.98;;
13477;SDS011;12598;62.382;17.344;2023-01-10T04:53:53;2.30;;;2.10;;
13477;SDS011;12598;62.382;17.344;2023-01-10T04:54:55;2.50;;;2.03;;
13477;SDS011;12598;62.382;17.344;2023-01-10T04:56:01;2.33;;;2.13;;
13477;SDS011;12598;62.382;17.344;2023-01-10T04:57:04;2.28;;;1.92;;
13477;SDS011;12598;62.382;17.344;2023-01-10T04:58:06;2.10;;;1.83;;
13477;SDS011;12598;62.382;17.344;2023-01-10T04:59:08;1.98;;;1.70;;
13477;SDS011;12598;62.382;17.344;2023-01-10T05:00:11;2.60;;;2.10;;
13477;SDS011;12598;62.382;17.344;2023-01-10T05:01:15;2.42;;;2.00;;
13477;SDS011;12598;62.382;17.344;2023-01-10T05:02:20;2.10;;;1.90;;
13477;SDS011;12598;62.382;17.344;2023-01-10T05:03:22;2.30;;;2.10;;
13477;SDS011;12598;62.382;17.344;2023-01-10T05:04:24;2.20;;;2.00;;
13477;SDS011;12598;62.382;17.344;2023-01-10T05:05:26;2.20;;;2.00;;
13477;SDS011;12598;62.382;17.344;2023-01-10T05:06:28;2.25;;;2.05;;
13477;SDS011;12598;62.382;17.344;2023-01-10T05:07:30;2.20;;;2.00;;
13477;SDS011;12598;62.382;17.344;2023-01-10T05:08:32;2.13;;;1.98;;
13477;SDS011;12598;62.382;17.344;2023-01-10T05:09:34;2.42;;;2.22;;
13477;SDS011;12598;62.382;17.344;2023-01-10T05:10:36;2.42;;;2.22;;
13477;SDS011;12598;62.382;17.344;2023-01-10T05:11:38;2.08;;;1.80;;
13477;SDS011;12598;62.382;17.344;2023-01-10T05:12:40;1.90;;;1.80;;
13477;SDS011;12598;62.382;17.344;2023-01-10T05:13:42;1.83;;;1.67;;
13477;SDS011;12598;62.382;17.344;2023-01-10T05:14:43;1.98;;;1.80;;
13477;SDS011;12598;62.382;17.344;2023-01-10T05:15:45;2.13;;;1.92;;
13477;SDS011;12598;62.382;17.344;2023-01-10T05:16:47;2.03;;;1.83;;
13477;SDS011;12598;62.382;17.344;2023-01-10T05:17:49;1.65;;;1.55;;
13477;SDS011;12598;62.382;17.344;2023-01-10T05:18:57;1.60;;;1.50;;
13477;SDS011;12598;62.382;17.344;2023-01-10T05:19:59;2.40;;;1.80;;
13477;SDS011;12598;62.382;17.344;2023-01-10T05:21:02;2.03;;;1.83;;
13477;SDS011;12598;62.382;17.344;2023-01-10T05:22:05;1.77;;;1.67;;
13477;SDS011;12598;62.382;17.344;2023-01-10T05:23:07;1.95;;;1.85;;
13477;SDS011;12598;62.382;17.344;2023-01-10T05:24:09;1.60;;;1.50;;
13477;SDS011;12598;62.382;17.344;2023-01-10T05:25:10;1.92;;;1.77;;
13477;SDS011;12598;62.382;17.344;2023-01-10T05:26:13;1.95;;;1.65;;
13477;SDS011;12598;62.382;17.344;2023-01-10T05:27:17;1.85;;;1.70;;
13477;SDS011;12598;62.382;17.344;2023-01-10T05:28:19;1.77;;;1.63;;
13477;SDS011;12598;62.382;17.344;2023-01-10T05:29:21;1.60;;;1.50;;
13477;SDS011;12598;62.382;17.344;2023-01-10T05:30:23;2.10;;;1.90;;
13477;SDS011;12598;62.382;17.344;2023-01-10T05:31:25;1.75;;;1.65;;
13477;SDS011;12598;62.382;17.344;2023-01-10T05:32:27;1.73;;;1.52;;
13477;SDS011;12598;62.382;17.344;2023-01-10T05:33:30;2.03;;;1.73;;
13477;SDS011;12598;62.382;17.344;2023-01-10T05:34:31;1.95;;;1.75;;
13477;SDS011;12598;62.382;17.344;2023-01-10T05:35:33;1.70;;;1.60;;
13477;SDS011;12598;62.382;17.344;2023-01-10T05:36:35;1.55;;;1.30;;
13477;SDS011;12598;62.382;17.344;2023-01-10T05:37:37;1.42;;;1.33;;
13477;SDS011;12598;62.382;17.344;2023-01-10T05:38:39;1.67;;;1.58;;
13477;SDS011;12598;62.382;17.344;2023-01-10T05:39:41;1.40;;;1.30;;
13477;SDS011;12598;62.382;17.344;2023-01-10T05:40:43;2.00;;;1.60;;
13477;SDS011;12598;62.382;17.344;2023-01-10T05:41:46;1.70;;;1.33;;
13477;SDS011;12598;62.382;17.344;2023-01-10T05:42:47;1.55;;;1.45;;
13477;SDS011;12598;62.382;17.344;2023-01-10T05:43:49;1.60;;;1.20;;
13477;SDS011;12598;62.382;17.344;2023-01-10T05:44:53;1.70;;;1.30;;
13477;SDS011;12598;62.382;17.344;2023-01-10T05:45:55;2.20;;;1.60;;
13477;SDS011;12598;62.382;17.344;2023-01-10T05:46:57;1.60;;;1.25;;
13477;SDS011;12598;62.382;17.344;2023-01-10T05:47:58;1.33;;;1.13;;
13477;SDS011;12598;62.382;17.344;2023-01-10T05:49:00;1.63;;;1.52;;
13477;SDS011;12598;62.382;17.344;2023-01-10T05:50:02;1.25;;;1.15;;
13477;SDS011;12598;62.382;17.344;2023-01-10T05:51:04;2.08;;;1.33;;
13477;SDS011;12598;62.382;17.344;2023-01-10T05:52:06;1.40;;;1.30;;
13477;SDS011;12598;62.382;17.344;2023-01-10T05:53:08;1.70;;;1.25;;
13477;SDS011;12598;62.382;17.344;2023-01-10T05:54:10;1.35;;;1.13;;
13477;SDS011;12598;62.382;17.344;2023-01-10T05:55:12;1.67;;;1.30;;
13477;SDS011;12598;62.382;17.344;2023-01-10T05:56:14;2.10;;;1.30;;
13477;SDS011;12598;62.382;17.344;2023-01-10T05:57:15;1.17;;;1.08;;
13477;SDS011;12598;62.382;17.344;2023-01-10T05:58:19;1.52;;;1.25;;
13477;SDS011;12598;62.382;17.344;2023-01-10T05:59:21;1.40;;;1.30;;
13477;SDS011;12598;62.382;17.344;2023-01-10T06:00:30;1.50;;;1.30;;
13477;SDS011;12598;62.382;17.344;2023-01-10T06:01:32;1.65;;;1.15;;
13477;SDS011;12598;62.382;17.344;2023-01-10T06:02:34;1.10;;;1.00;;
13477;SDS011;12598;62.382;17.344;2023-01-10T06:03:36;1.45;;;1.30;;
13477;SDS011;12598;62.382;17.344;2023-01-10T06:04:38;1.10;;;1.00;;
13477;SDS011;12598;62.382;17.344;2023-01-10T06:05:40;1.90;;;1.27;;
13477;SDS011;12598;62.382;17.344;2023-01-10T06:06:42;1.60;;;1.08;;
13477;SDS011;12598;62.382;17.344;2023-01-10T06:07:44;2.13;;;1.20;;
13477;SDS011;12598;62.382;17.344;2023-01-10T06:08:45;1.15;;;1.05;;
13477;SDS011;12598;62.382;17.344;2023-01-10T06:09:47;1.00;;;0.90;;
13477;SDS011;12598;62.382;17.344;2023-01-10T06:10:51;1.48;;;1.38;;
13477;SDS011;12598;62.382;17.344;2023-01-10T06:11:53;1.58;;;0.93;;
13477;SDS011;12598;62.382;17.344;2023-01-10T06:12:55;1.05;;;0.93;;
13477;SDS011;12598;62.382;17.344;2023-01-10T06:13:57;1.20;;;1.00;;
13477;SDS011;12598;62.382;17.344;2023-01-10T06:14:59;1.35;;;1.00;;
13477;SDS011;12598;62.382;17.344;2023-01-10T06:16:01;1.05;;;0.95;;
13477;SDS011;12598;62.382;17.344;2023-01-10T06:17:03;1.65;;;1.05;;
13477;SDS011;12598;62.382;17.344;2023-01-10T06:18:08;1.20;;;0.98;;
13477;SDS011;12598;62.382;17.344;2023-01-10T06:19:12;1.20;;;1.00;;
13477;SDS011;12598;62.382;17.344;2023-01-10T06:20:14;0.98;;;0.75;;
13477;SDS011;12598;62.382;17.344;2023-01-10T06:21:17;1.30;;;1.00;;
13477;SDS011;12598;62.382;17.344;2023-01-10T06:22:18;1.70;;;1.00;;
13477;SDS011;12598;62.382;17.344;2023-01-10T06:23:20;1.35;;;0.88;;
13477;SDS011;12598;62.382;17.344;2023-01-10T06:24:22;1.33;;;0.98;;
13477;SDS011;12598;62.382;17.344;2023-01-10T06:25:24;1.40;;;1.13;;
13477;SDS011;12598;62.382;17.344;2023-01-10T06:26:26;1.27;;;0.93;;
13477;SDS011;12598;62.382;17.344;2023-01-10T06:27:28;1.10;;;0.90;;
13477;SDS011;12598;62.382;17.344;2023-01-10T06:28:29;0.85;;;0.80;;
13477;SDS011;12598;62.382;17.344;2023-01-10T06:29:31;1.00;;;0.90;;
13477;SDS011;12598;62.382;17.344;2023-01-10T06:30:33;1.45;;;1.08;;
13477;SDS011;12598;62.382;17.344;2023-01-10T06:31:38;1.08;;;0.90;;
13477;SDS011;12598;62.382;17.344;2023-01-10T06:32:40;1.65;;;0.85;;
13477;SDS011;12598;62.382;17.344;2023-01-10T06:33:42;1.02;;;0.90;;
13477;SDS011;12598;62.382;17.344;2023-01-10T06:34:44;1.35;;;0.90;;
13477;SDS011;12598;62.382;17.344;2023-01-10T06:35:46;1.35;;;0.90;;
13477;SDS011;12598;62.382;17.344;2023-01-10T06:36:48;1.42;;;1.02;;
13477;SDS011;12598;62.382;17.344;2023-01-10T06:37:50;0.98;;;0.80;;
13477;SDS011;12598;62.382;17.344;2023-01-10T06:38:52;1.17;;;0.88;;
13477;SDS011;12598;62.382;17.344;2023-01-10T06:39:54;1.20;;;0.90;;
13477;SDS011;12598;62.382;17.344;2023-01-10T06:40:56;1.27;;;0.95;;
13477;SDS011;12598;62.382;17.344;2023-01-10T06:41:57;1.40;;;1.10;;
13477;SDS011;12598;62.382;17.344;2023-01-10T06:42:59;0.95;;;0.80;;
13477;SDS011;12598;62.382;17.344;2023-01-10T06:44:01;1.15;;;0.82;;
13477;SDS011;12598;62.382;17.344;2023-01-10T06:45:03;1.95;;;1.02;;
13477;SDS011;12598;62.382;17.344;2023-01-10T06:46:06;1.55;;;1.20;;
13477;SDS011;12598;62.382;17.344;2023-01-10T06:47:10;1.00;;;0.90;;
13477;SDS011;12598;62.382;17.344;2023-01-10T06:48:12;1.83;;;1.08;;
13477;SDS011;12598;62.382;17.344;2023-01-10T06:49:14;2.15;;;1.02;;
13477;SDS011;12598;62.382;17.344;2023-01-10T06:50:15;1.40;;;0.80;;
13477;SDS011;12598;62.382;17.344;2023-01-10T06:51:17;1.55;;;1.27;;
13477;SDS011;12598;62.382;17.344;2023-01-10T06:52:20;1.70;;;1.13;;
13477;SDS011;12598;62.382;17.344;2023-01-10T06:53:22;2.10;;;1.00;;
13477;SDS011;12598;62.382;17.344;2023-01-10T06:54:24;0.60;;;0.60;;
13477;SDS011;12598;62.382;17.344;2023-01-10T06:55:26;1.77;;;1.05;;
13477;SDS011;12598;62.382;17.344;2023-01-10T06:56:28;1.23;;;1.05;;
13477;SDS011;12598;62.382;17.344;2023-01-10T06:57:31;1.10;;;0.82;;
13477;SDS011;12598;62.382;17.344;2023-01-10T06:58:37;1.70;;;1.00;;
13477;SDS011;12598;62.382;17.344;2023-01-10T06:59:39;1.05;;;0.90;;
13477;SDS011;12598;62.382;17.344;2023-01-10T07:00:41;1.48;;;0.88;;
13477;SDS011;12598;62.382;17.344;2023-01-10T07:01:43;1.38;;;0.98;;